Latest Weather Observations for Maria Island

IDT60801

Issued at 12:02 pm EST Thursday 24 May 2018 (issued every 10 minutes, with the page automatically refreshed every 10 minutes)

About weather observations | Map of weather stations | Latest weather observations for TAS | Other Formats
Station Details ID: 092124 Name: MARIA ISLAND (POINT LESUEUR) Lat: -42.66 Lon: 148.02 Height: 28.0 m
Data from the previous 72 hours. | See also: Recent months at Maria Island
Date/Time
EST
Temp
°C
App
Temp
°C
Dew
Point
°C
Rel
Hum
%
Delta-T
°C
Wind Press
QNH
hPa
Press
MSL
hPa
Rain since
9am
mm
Dir  Spd
km/h
Gust
km/h
Spd
kts
Gust
kts
24/12:00pm 12.4 4.9 3.6 55 3.9 SW 32 41 17 22 1022.8 1022.8 0.0
24/11:30am 12.3 6.0 3.5 55 3.9 SW 26 35 14 19 1023.2 1023.2 0.0
24/11:00am 12.4 5.0 4.1 57 3.7 WSW 32 44 17 24 1023.1 1023.1 0.0
24/10:30am 11.9 5.1 3.2 55 3.8 WSW 28 39 15 21 1023.1 1023.1 0.0
24/10:00am 11.5 5.4 2.8 55 3.8 W 24 35 13 19 1022.9 1022.9 0.0
24/09:30am 11.3 5.3 3.1 57 3.6 WSW 24 32 13 17 1022.9 1022.9 0.0
24/09:00am 10.9 5.3 3.2 59 3.3 WSW 22 32 12 17 1022.5 1022.5 0.0
24/08:30am 10.4 5.6 2.7 59 3.3 W 17 22 9 12 1022.2 1022.2 0.0
24/08:00am 10.2 6.2 2.6 59 3.2 W 13 19 7 10 1022.0 1022.0 0.0
24/07:30am 9.8 6.1 2.4 60 3.1 W 11 17 6 9 1021.6 1021.6 0.0
24/07:00am 10.0 6.0 2.6 60 3.1 W 13 19 7 10 1021.5 1021.5 0.0
24/06:30am 10.3 7.0 2.7 59 3.3 W 9 15 5 8 1021.2 1021.2 0.0
24/06:00am 10.7 6.6 2.5 57 3.5 WSW 13 22 7 12 1020.8 1020.8 0.0
24/05:30am 10.6 6.6 2.9 59 3.3 WSW 13 20 7 11 1020.2 1020.2 0.0
24/05:00am 11.1 6.4 2.9 57 3.6 WSW 17 24 9 13 1020.0 1020.0 0.0
24/04:30am 11.3 6.1 3.3 58 3.5 W 20 26 11 14 1019.4 1019.4 0.0
24/04:00am 11.4 6.2 3.7 59 3.4 W 20 32 11 17 1019.4 1019.4 0.0
24/03:30am 11.8 6.2 3.6 57 3.6 W 22 32 12 17 1019.2 1019.2 0.0
24/03:00am 12.0 6.9 4.2 59 3.5 W 20 28 11 15 1019.2 1019.2 0.0
24/02:30am 12.0 7.2 4.5 60 3.4 W 19 26 10 14 1019.2 1019.2 0.0
24/02:00am 12.4 6.9 4.1 57 3.7 WSW 22 30 12 16 1019.0 1019.0 0.0
24/01:30am 12.6 7.2 4.6 58 3.7 WSW 22 37 12 20 1019.1 1019.1 0.0
24/01:15am 12.7 5.8 4.4 57 3.8 WSW 30 48 16 26 1018.6 1018.6 0.0
24/01:00am 12.5 6.1 5.2 61 3.4 W 28 39 15 21 1018.7 1018.7 0.0
24/12:30am 12.7 5.5 4.9 59 3.6 WSW 32 39 17 21 1018.4 1018.4 0.0
24/12:17am 12.9 6.0 4.6 57 3.8 W 30 54 16 29 1018.1 1018.1 0.0
24/12:00am 12.8 6.3 4.5 57 3.8 W 28 37 15 20 1018.4 1018.4 0.0
 
Date/Time
EST
Temp
°C
App
Temp
°C
Dew
Point
°C
Rel
Hum
%
Delta-T
°C
Wind Press
QNH
hPa
Press
MSL
hPa
Rain since
9am
mm
Dir  Spd
km/h
Gust
km/h
Spd
kts
Gust
kts
23/11:30pm 12.7 7.9 4.4 57 3.8 W 19 24 10 13 1018.6 1018.6 0.0
23/11:00pm 13.1 6.2 4.5 56 3.9 W 30 39 16 21 1018.2 1018.2 0.0
23/10:30pm 13.3 6.4 4.7 56 4.0 W 30 39 16 21 1018.3 1018.3 0.0
23/10:00pm 13.2 8.2 4.4 55 4.0 W 20 30 11 16 1018.5 1018.5 0.0
23/09:30pm 13.2 8.6 5.4 59 3.6 WSW 19 26 10 14 1018.4 1018.4 0.0
23/09:00pm 13.2 8.4 5.4 59 3.6 W 20 30 11 16 1018.2 1018.2 0.0
23/08:30pm 13.4 9.3 4.6 55 4.1 W 15 24 8 13 1018.0 1018.0 0.0
23/08:00pm 13.4 9.7 4.3 54 4.2 W 13 17 7 9 1017.9 1017.9 0.0
23/07:30pm 13.3 9.7 5.2 58 3.8 W 13 20 7 11 1017.4 1017.4 0.0
23/07:00pm 13.3 8.9 5.0 57 3.8 WNW 17 24 9 13 1017.1 1017.1 0.0
23/06:30pm 13.5 8.9 5.4 58 3.8 WNW 19 24 10 13 1016.7 1016.7 0.0
23/06:00pm 14.0 7.7 5.9 58 3.8 W 28 35 15 19 1016.5 1016.5 0.0
23/05:30pm 14.2 7.2 6.1 58 3.9 W 32 41 17 22 1015.8 1015.8 0.0
23/05:00pm 14.4 7.9 6.3 58 3.9 W 30 43 16 23 1015.7 1015.7 0.0
23/04:30pm 15.0 6.7 6.3 56 4.2 W 39 50 21 27 1015.3 1015.3 0.0
23/04:00pm 15.4 9.6 6.2 54 4.4 W 26 39 14 21 1015.2 1015.2 0.0
23/03:35pm 15.6 8.7 6.3 54 4.5 W 32 50 17 27 1015.1 1015.1 0.0
23/03:30pm 15.6 9.5 6.6 55 4.4 W 28 41 15 22 1015.4 1015.4 0.0
23/03:02pm 15.7 7.1 6.4 54 4.5 WSW 41 59 22 32 1015.2 1015.2 0.0
23/03:00pm 15.6 6.6 6.6 55 4.4 WSW 43 59 23 32 1014.8 1014.8 0.0
23/02:31pm 16.0 9.0 6.2 52 4.8 W 32 54 17 29 1014.6 1014.6 0.0
23/02:30pm 16.0 8.9 5.3 49 5.1 W 32 48 17 26 1014.8 1014.8 0.0
23/02:11pm 16.1 9.9 6.3 52 4.8 W 28 48 15 26 1014.9 1014.9 0.0
23/02:06pm 16.2 11.0 5.5 49 5.1 W 22 43 12 23 1014.9 1014.9 0.0
23/02:00pm 16.3 11.2 5.9 50 5.0 W 22 33 12 18 1015.4 1015.4 0.0
23/01:42pm 16.2 11.5 5.2 48 5.2 W 19 54 10 29 1015.1 1015.1 0.0
23/01:30pm 15.9 11.3 6.3 53 4.7 WSW 20 30 11 16 1015.6 1015.6 0.0
23/01:25pm 16.1 10.0 6.5 53 4.7 WSW 28 46 15 25 1015.5 1015.5 0.0
23/01:00pm 16.0 12.1 5.3 49 5.1 W 15 33 8 18 1015.4 1015.4 0.0
23/12:30pm 16.4 11.2 7.1 54 4.6 W 24 43 13 23 1015.7 1015.7 0.0
23/12:07pm 15.6 8.7 6.3 54 4.5 W 32 57 17 31 1015.4 1015.4 0.0
23/12:00pm 15.4 9.6 6.2 54 4.4 W 26 37 14 20 1015.7 1015.7 0.0
23/11:30am 14.8 8.2 6.1 56 4.2 WSW 30 50 16 27 1015.9 1015.9 0.0
23/11:28am 14.7 7.7 5.8 55 4.2 W 32 50 17 27 1015.9 1015.9 0.0
23/11:00am 14.3 8.0 5.7 56 4.1 WSW 28 39 15 21 1016.2 1016.2 0.0
23/10:49am 14.4 8.1 5.7 56 4.1 WSW 28 52 15 28 1015.7 1015.7 0.0
23/10:30am 14.2 8.4 6.3 59 3.8 W 26 32 14 17 1016.0 1016.0 0.0
23/10:00am 14.0 7.7 5.9 58 3.8 W 28 39 15 21 1015.6 1015.6 0.0
23/09:30am 13.6 9.2 6.5 62 3.4 WNW 19 28 10 15 1016.2 1016.2 0.0
23/09:00am 13.2 11.2 6.3 63 3.3 W 6 17 3 9 1016.4 1016.4 0.0
23/08:30am 13.1 10.5 6.0 62 3.4 W 9 19 5 10 1016.5 1016.5 0.0
23/08:00am 12.3 9.8 6.6 68 2.7 N 9 13 5 7 1016.7 1016.7 0.0
23/07:30am 11.7 8.8 6.6 71 2.4 NNW 11 15 6 8 1016.4 1016.4 0.0
23/07:00am 11.3 8.1 7.0 75 2.0 N 13 17 7 9 1016.3 1016.3 0.0
23/06:30am 11.3 6.9 7.4 77 1.9 N 20 22 11 12 1016.1 1016.1 0.0
23/06:00am 11.4 6.5 6.7 73 2.2 N 22 24 12 13 1016.1 1016.1 0.0
23/05:30am 11.6 6.7 7.1 74 2.2 N 22 26 12 14 1016.2 1016.2 0.0
23/05:00am 10.9 6.5 7.2 78 1.8 NNW 20 24 11 13 1016.1 1016.1 0.0
23/04:30am 11.3 6.2 6.2 71 2.4 NNW 22 26 12 14 1016.1 1016.1 0.0
23/04:00am 11.1 6.0 6.0 71 2.4 NNW 22 26 12 14 1016.1 1016.1 0.0
23/03:30am 10.8 6.0 5.8 71 2.3 NNW 20 24 11 13 1016.5 1016.5 0.0
23/03:00am 10.6 5.3 5.2 69 2.5 NW 22 24 12 13 1016.7 1016.7 0.0
23/02:30am 10.4 5.1 5.0 69 2.4 NW 22 26 12 14 1017.1 1017.1 0.0
23/02:00am 10.1 4.7 4.3 67 2.6 NNW 22 24 12 13 1017.4 1017.4 0.0
23/01:30am 9.9 4.7 3.6 65 2.8 NW 20 24 11 13 1017.5 1017.5 0.0
23/01:00am 9.9 5.7 3.6 65 2.7 NNW 15 17 8 9 1017.8 1017.8 0.0
23/12:30am 9.7 4.9 2.8 62 3.0 NW 17 20 9 11 1018.0 1018.0 0.0
23/12:00am 9.7 5.4 3.2 64 2.8 WNW 15 19 8 10 1017.9 1017.9 0.0
 
Date/Time
EST
Temp
°C
App
Temp
°C
Dew
Point
°C
Rel
Hum
%
Delta-T
°C
Wind Press
QNH
hPa
Press
MSL
hPa
Rain since
9am
mm
Dir  Spd
km/h
Gust
km/h
Spd
kts
Gust
kts
22/11:30pm 9.4 5.8 2.7 63 2.9 NW 11 17 6 9 1017.9 1017.9 0.0
22/11:00pm 9.8 5.3 2.2 59 3.2 WNW 15 20 8 11 1018.1 1018.1 0.0
22/10:30pm 10.3 4.9 2.7 59 3.3 W 20 28 11 15 1017.8 1017.8 0.0
22/10:00pm 10.3 5.6 2.9 60 3.2 W 17 22 9 12 1017.9 1017.9 0.0
22/09:30pm 10.6 5.3 3.2 60 3.2 WSW 20 28 11 15 1017.7 1017.7 0.0
22/09:00pm 10.6 5.3 2.9 59 3.3 W 20 26 11 14 1017.6 1017.6 0.0
22/08:30pm 10.6 6.6 2.9 59 3.3 W 13 19 7 10 1017.4 1017.4 0.0
22/08:00pm 10.9 5.1 2.5 56 3.6 WSW 22 28 12 15 1017.2 1017.2 0.0
22/07:30pm 11.1 6.4 2.9 57 3.6 W 17 24 9 13 1017.1 1017.1 0.0
22/07:00pm 11.3 5.3 3.6 59 3.4 SW 24 35 13 19 1016.9 1016.9 0.0
22/06:30pm 11.5 5.5 3.3 57 3.6 WSW 24 37 13 20 1016.7 1016.7 0.0
22/06:00pm 11.5 6.3 3.3 57 3.6 WSW 20 28 11 15 1016.2 1016.2 0.0
22/05:30pm 11.6 6.6 3.6 58 3.5 WSW 19 24 10 13 1015.7 1015.7 0.0
22/05:00pm 11.6 4.6 4.3 61 3.3 SW 30 41 16 22 1015.2 1015.2 0.0
22/04:30pm 12.0 2.5 4.0 58 3.6 SW 43 54 23 29 1014.4 1014.4 0.0
22/04:00pm 12.4 3.2 3.6 55 3.9 SW 41 52 22 28 1014.0 1014.0 0.0
22/03:30pm 12.7 3.1 4.2 56 3.9 SW 44 57 24 31 1013.7 1013.7 0.0
22/03:00pm 12.8 4.1 4.3 56 3.9 SW 39 54 21 29 1013.3 1013.3 0.0
22/02:49pm 13.0 4.4 4.7 57 3.8 SW 39 63 21 34 1013.2 1013.2 0.0
22/02:30pm 12.9 3.2 3.8 54 4.1 SW 44 56 24 30 1012.9 1012.9 0.0
22/02:00pm 13.1 3.5 4.3 55 4.0 SW 44 63 24 34 1012.5 1012.5 0.0
22/01:33pm 12.8 4.0 3.7 54 4.1 SW 39 57 21 31 1012.2 1012.2 0.0
22/01:30pm 12.8 4.4 3.7 54 4.1 SW 37 50 20 27 1012.4 1012.4 0.0
22/01:00pm 13.2 3.7 4.1 54 4.1 SW 43 61 23 33 1011.8 1011.8 0.0
22/12:57pm 12.8 3.1 3.7 54 4.1 SW 44 61 24 33 1011.7 1011.7 0.0
22/12:55pm 12.9 3.2 4.1 55 4.0 SW 44 61 24 33 1011.5 1011.5 0.0
22/12:51pm 12.9 3.0 4.6 57 3.8 SW 46 65 25 35 1011.6 1011.6 0.0
22/12:30pm 13.1 0.6 4.0 54 4.1 SW 59 80 32 43 1010.8 1010.8 0.0
22/12:00pm 13.0 -0.2 4.4 56 3.9 SW 63 83 34 45 1010.3 1010.3 0.0
22/11:33am 12.9 -0.9 3.3 52 4.3 SW 65 85 35 46 1009.6 1009.6 0.0
22/11:30am 12.9 -0.8 3.6 53 4.2 SW 65 83 35 45 1009.9 1009.9 0.0
22/11:00am 13.1 1.1 3.7 53 4.2 SW 56 96 30 52 1009.9 1009.9 0.0
22/10:39am 13.1 0.9 2.9 50 4.5 SW 56 102 30 55 1009.0 1009.0 0.0
22/10:30am 13.0 1.1 4.2 55 4.0 SW 56 76 30 41 1009.9 1009.9 0.0
22/10:01am 12.7 0.3 2.8 51 4.4 SW 57 82 31 44 1009.0 1009.0 0.0
22/10:00am 12.7 0.6 3.1 52 4.3 SW 56 72 30 39 1009.1 1009.1 0.0
22/09:36am 12.6 0.4 2.5 50 4.4 SW 56 80 30 43 1008.9 1008.9 0.0
22/09:30am 12.5 1.2 3.2 53 4.1 SW 52 69 28 37 1008.9 1008.9 0.0
22/09:08am 12.4 2.8 3.4 54 4.0 SW 43 67 23 36 1008.9 1008.9 0.0
22/09:00am 12.4 4.8 4.1 57 3.8 WSW 33 50 18 27 1009.1 1009.1 -
22/08:32am 12.3 3.9 3.5 55 3.9 WSW 37 56 20 30 1008.5 1008.5 -
22/08:30am 12.2 4.1 3.4 55 3.9 WSW 35 50 19 27 1008.3 1008.3 -
22/08:00am 12.0 3.3 4.0 58 3.6 SW 39 57 21 31 1007.9 1007.9 -
22/07:30am 12.1 3.4 3.9 57 3.7 SW 39 54 21 29 1007.6 1007.6 -
22/07:00am 12.0 3.4 4.5 60 3.4 SW 39 50 21 27 1007.1 1007.1 -
22/06:30am 12.3 3.6 4.3 58 3.6 SW 39 52 21 28 1006.4 1006.4 -
22/06:00am 12.5 3.1 4.2 57 3.8 SW 43 54 23 29 1006.0 1006.0 -
22/05:30am 13.0 2.8 3.4 52 4.3 SW 46 61 25 33 1005.6 1005.6 -
22/05:00am 13.0 2.7 2.8 50 4.5 SW 46 54 25 29 1005.3 1005.3 -
22/04:34am 13.0 3.3 3.7 53 4.2 SW 44 65 24 35 1005.3 1005.3 -
22/04:30am 13.1 2.4 2.6 49 4.6 SW 48 65 26 35 1005.1 1005.1 -
22/04:00am 13.3 2.6 2.5 48 4.8 SW 48 63 26 34 1005.0 1005.0 -
22/03:30am 13.6 1.2 2.5 47 4.9 WSW 57 74 31 40 1003.9 1003.9 -
22/03:02am 13.8 2.7 4.4 53 4.3 SW 52 72 28 39 1004.3 1004.3 -
22/03:00am 14.0 2.4 4.0 51 4.6 SW 54 72 29 39 1004.1 1004.1 0.0
22/02:30am 14.4 2.6 4.7 52 4.5 WSW 56 76 30 41 1003.8 1003.8 -
22/02:18am 14.4 3.0 4.7 52 4.5 WSW 54 83 29 45 1003.4 1003.4 -
22/02:16am 14.4 3.0 4.7 52 4.5 WSW 54 83 29 45 1003.6 1003.6 -
22/02:00am 14.7 0.7 4.4 50 4.8 WSW 67 89 36 48 1002.9 1002.9 -
22/01:30am 14.7 2.5 5.8 55 4.2 WSW 59 83 32 45 1003.0 1003.0 -
22/01:16am 14.7 3.5 6.0 56 4.2 WSW 54 76 29 41 1002.9 1002.9 -
22/01:00am 14.7 4.4 6.5 58 4.0 WSW 50 67 27 36 1003.1 1003.1 -
22/12:30am 14.8 4.9 6.4 57 4.1 WSW 48 67 26 36 1003.1 1003.1 -
22/12:22am 14.9 5.0 6.7 58 4.0 WSW 48 67 26 36 1002.8 1002.8 -
22/12:00am 14.5 7.1 6.8 60 3.8 WSW 35 61 19 33 1003.6 1003.6 -
 
Date/Time
EST
Temp
°C
App
Temp
°C
Dew
Point
°C
Rel
Hum
%
Delta-T
°C
Wind Press
QNH
hPa
Press
MSL
hPa
Rain since
9am
mm
Dir  Spd
km/h
Gust
km/h
Spd
kts
Gust
kts
21/11:37pm 14.6 7.2 6.9 60 3.8 WSW 35 54 19 29 1003.3 1003.3 -
21/11:30pm 14.5 7.5 6.8 60 3.7 WSW 33 46 18 25 1003.4 1003.4 -
21/11:02pm 14.7 6.9 6.5 58 4.0 WSW 37 56 20 30 1003.2 1003.2 -
21/11:00pm 14.9 6.6 6.2 56 4.2 WSW 39 56 21 30 1003.0 1003.0 -
21/10:39pm 14.6 7.1 6.2 57 4.0 W 35 54 19 29 1003.8 1003.8 -
21/10:30pm 14.8 6.8 5.9 55 4.3 W 37 54 20 29 1003.7 1003.7 -
21/10:00pm 14.7 5.5 6.5 58 4.0 WSW 44 63 24 34 1003.9 1003.9 -
21/09:45pm 14.9 6.7 6.5 57 4.1 WSW 39 61 21 33 1003.7 1003.7 -
21/09:30pm 14.8 7.7 6.6 58 4.0 WSW 33 46 18 25 1003.9 1003.9 -
21/09:13pm 14.9 8.8 6.7 58 4.0 W 28 46 15 25 1004.0 1004.0 -
21/09:00pm 14.7 9.8 6.8 59 3.9 W 22 33 12 18 1004.2 1004.2 0.0
21/08:30pm 14.7 8.9 6.3 57 4.1 WNW 26 37 14 20 1004.0 1004.0 -
21/08:00pm 13.6 11.2 6.9 64 3.3 NW 9 17 5 9 1004.3 1004.3 -
21/07:30pm 13.7 10.0 6.3 61 3.5 WNW 15 20 8 11 1004.6 1004.6 -
21/07:00pm 13.8 9.6 5.9 59 3.8 NW 17 26 9 14 1004.7 1004.7 -
21/06:30pm 14.0 9.8 5.9 58 3.9 NW 17 28 9 15 1004.7 1004.7 -
21/06:00pm 13.8 10.4 5.7 58 3.8 NW 13 22 7 12 1004.7 1004.7 -
21/05:49pm 14.0 9.4 5.6 57 4.0 NW 19 28 10 15 1005.0 1005.0 -
21/05:30pm 14.2 6.2 5.8 57 4.0 WNW 37 57 20 31 1004.4 1004.4 -
21/05:21pm 14.2 6.2 5.8 57 4.0 WNW 37 57 20 31 1004.3 1004.3 -
21/05:00pm 13.9 5.9 5.5 57 4.0 W 37 54 20 29 1004.6 1004.6 -
21/04:34pm 14.0 6.7 5.4 56 4.0 W 33 54 18 29 1005.0 1005.0 -
21/04:30pm 14.0 6.7 5.4 56 4.0 W 33 46 18 25 1005.3 1005.3 -
21/04:01pm 14.5 9.5 4.8 52 4.5 W 20 50 11 27 1005.4 1005.4 -
21/04:00pm 14.6 9.6 4.6 51 4.7 W 20 50 11 27 1005.3 1005.3 -
21/03:59pm 14.5 9.7 4.8 52 4.5 W 19 50 10 27 1005.1 1005.1 -
21/03:30pm 14.4 9.8 6.7 60 3.7 NW 20 32 11 17 1005.3 1005.3 -
21/03:00pm 14.6 9.3 6.9 60 3.8 WNW 24 32 13 17 1005.0 1005.0 -
21/02:30pm 15.0 9.0 7.1 59 3.9 WNW 28 39 15 21 1005.6 1005.6 -
21/02:00pm 15.0 9.6 6.3 56 4.2 WNW 24 - 13 - - 1005.7 -

Other Formats:

Comma delimited format used in spreadsheet applications
http://www.bom.gov.au/fwo/IDT60801/IDT60801.95988.axf

JavaScript Object Notation format (JSON) in row-major order
http://www.bom.gov.au/fwo/IDT60801/IDT60801.95988.json